Terminal Aerodrome Forecast
Issued by NWS

Home | Current Version | Previous Version | Text Only | Print | Product List | Glossary On
Versions: 1 2 3 4 5 6 7 8 9 10 11 12 13 14 15 16
000
FTUS44 KLIX 240500
TAFMCB
TAF
KMCB 240520Z 2406/2506 VRB03KT P6SM SKC
     FM240900 00000KT P6SM SCT010
      TEMPO 2409/2413 3SM BR
     FM241400 18008KT P6SM SCT030
     FM250100 19007KT P6SM SCT250=

USA.gov is the U.S. government's official web portal to all federal, state and local government web resources and services.